Time;durP1;ratioP1;P1;durP2;ratioP2;P2;SDS_P1;SDS_P2;PMS_P1;PMS_P2;Temp;Humidity;BMP_temperature;BMP_pressure;BME280_temperature;BME280_humidity;BME280_pressure;Samples;Min_cycle;Max_cycle;Signal;HPM_P1;HPM_P2
2023/03/12 00:00:38;;;;;;;6.00;2.70;;;0.40;99.90;;;;;;6247449;23;20017;-79
2023/03/12 00:03:04;;;;;;;6.47;2.30;;;0.40;99.90;;;;;;6247865;23;20070;-79
2023/03/12 00:05:30;;;;;;;7.78;2.88;;;0.30;99.90;;;;;;6247911;23;20015;-79
2023/03/12 00:07:58;;;;;;;6.53;2.80;;;0.30;99.90;;;;;;6247827;23;20027;-79
2023/03/12 00:10:25;;;;;;;6.55;2.90;;;0.40;99.90;;;;;;6247771;23;20148;-79
2023/03/12 00:12:51;;;;;;;7.97;2.80;;;0.40;99.90;;;;;;6247933;23;20055;-79
2023/03/12 00:15:17;;;;;;;9.00;3.10;;;0.40;99.90;;;;;;6249233;23;20026;-79
2023/03/12 00:17:42;;;;;;;5.30;2.78;;;0.40;99.90;;;;;;6247628;23;20024;-79
2023/03/12 00:20:09;;;;;;;8.90;2.85;;;0.40;99.90;;;;;;6248735;23;20034;-79
2023/03/12 00:22:34;;;;;;;7.18;2.97;;;0.50;99.90;;;;;;6247797;23;20078;-79
2023/03/12 00:25:01;;;;;;;6.82;2.92;;;0.40;99.90;;;;;;6247335;23;20012;-79
2023/03/12 00:27:27;;;;;;;8.30;2.97;;;0.40;99.90;;;;;;6247753;23;20009;-79
2023/03/12 00:29:53;;;;;;;8.88;3.45;;;0.50;99.90;;;;;;6249262;22;20394;-79
2023/03/12 00:32:19;;;;;;;9.57;3.72;;;0.40;99.90;;;;;;6249319;22;20443;-79
2023/03/12 00:34:50;;;;;;;9.68;3.03;;;0.40;99.90;;;;;;6276715;22;20043;-79
2023/03/12 00:37:16;;;;;;;9.05;3.28;;;0.40;99.90;;;;;;6250633;22;20075;-79
2023/03/12 00:39:42;;;;;;;7.05;3.20;;;0.50;99.90;;;;;;6251007;22;20012;-79
2023/03/12 00:42:07;;;;;;;7.47;3.33;;;0.50;99.90;;;;;;6278312;22;20024;-79
2023/03/12 00:44:33;;;;;;;7.50;3.25;;;0.40;99.90;;;;;;6251162;22;20023;-79
2023/03/12 00:46:59;;;;;;;6.78;3.35;;;0.50;99.90;;;;;;6251189;22;20054;-79
2023/03/12 00:49:24;;;;;;;6.18;3.13;;;0.40;99.90;;;;;;6278209;22;20445;-79
2023/03/12 00:51:50;;;;;;;5.70;3.40;;;0.40;99.90;;;;;;6251092;22;20045;-79
2023/03/12 00:54:16;;;;;;;5.90;3.42;;;0.40;99.90;;;;;;6278168;22;20043;-79
2023/03/12 00:56:41;;;;;;;7.95;3.30;;;0.40;99.90;;;;;;6277925;22;20019;-79
2023/03/12 00:59:07;;;;;;;8.70;3.70;;;0.50;99.90;;;;;;6250960;22;20069;-79
2023/03/12 01:01:33;;;;;;;6.32;3.50;;;0.40;99.90;;;;;;6251065;22;20054;-79
2023/03/12 01:03:58;;;;;;;9.48;3.50;;;0.30;99.90;;;;;;6278468;22;20069;-79
2023/03/12 01:06:24;;;;;;;6.90;3.63;;;0.30;99.90;;;;;;6278398;22;20041;-79
2023/03/12 01:08:50;;;;;;;7.15;3.30;;;0.20;99.90;;;;;;6278388;22;20071;-79
2023/03/12 01:11:18;;;;;;;8.50;4.00;;;0.20;99.90;;;;;;6250864;22;20015;-79
2023/03/12 01:13:45;;;;;;;7.15;3.60;;;0.20;99.90;;;;;;6250608;22;20340;-79
2023/03/12 01:16:10;;;;;;;8.30;4.35;;;0.20;99.90;;;;;;6250301;22;20047;-79
2023/03/12 01:18:36;;;;;;;7.72;4.07;;;0.10;99.90;;;;;;6250839;22;20019;-79
2023/03/12 01:21:02;;;;;;;7.53;4.30;;;0.20;99.90;;;;;;6250631;22;20039;-79
2023/03/12 01:23:27;;;;;;;11.30;4.70;;;0.20;99.90;;;;;;6250339;22;20020;-79
2023/03/12 01:25:56;;;;;;;12.52;4.97;;;0.10;99.90;;;;;;6250782;22;20019;-79
2023/03/12 01:28:23;;;;;;;7.60;4.57;;;0.10;99.90;;;;;;6250665;22;20020;-79
2023/03/12 01:30:48;;;;;;;11.50;4.68;;;0.10;99.90;;;;;;6250661;22;20383;-79
2023/03/12 01:33:14;;;;;;;11.05;5.55;;;0.10;99.90;;;;;;6250450;22;20073;-79
2023/03/12 01:35:40;;;;;;;10.63;4.90;;;0.20;99.90;;;;;;6250549;22;20518;-79
2023/03/12 01:38:10;;;;;;;9.20;5.55;;;0.10;99.90;;;;;;6250992;22;20039;-79
2023/03/12 01:40:36;;;;;;;7.80;4.53;;;0.30;99.90;;;;;;6250450;22;20340;-79
2023/03/12 01:43:29;;;;;;;8.50;5.10;;;0.20;99.90;;;;;;6250422;22;20347;-79
2023/03/12 01:46:42;;;;;;;9.40;5.07;;;0.20;99.90;;;;;;6277646;22;20436;-79
2023/03/12 01:49:19;;;;;;;8.63;5.35;;;0.20;99.90;;;;;;6168706;22;20050;-79
2023/03/12 01:52:16;;;;;;;6.63;4.78;;;0.30;99.90;;;;;;6250480;22;20091;-79
2023/03/12 01:54:44;;;;;;;11.23;4.90;;;0.40;99.90;;;;;;6244522;22;20019;-79
2023/03/12 01:57:17;;;;;;;11.02;4.88;;;0.40;99.90;;;;;;6250128;22;20015;-79
2023/03/12 01:59:45;;;;;;;;;;;0.40;99.90;;;;;;6251128;22;20016;-79
2023/03/12 02:02:13;;;;;;;9.60;5.18;;;0.50;99.90;;;;;;6250419;22;19919;-79
2023/03/12 02:04:39;;;;;;;9.10;5.75;;;0.50;99.90;;;;;;6277589;22;20073;-79
2023/03/12 02:07:12;;;;;;;12.40;5.32;;;0.50;99.90;;;;;;6277799;22;20022;-79
2023/03/12 02:09:40;;;;;;;9.27;5.30;;;0.50;99.90;;;;;;6250351;22;20019;-79
2023/03/12 02:12:07;;;;;;;7.68;4.93;;;0.60;99.90;;;;;;6250241;22;20016;-79
2023/03/12 02:14:32;;;;;;;9.85;5.90;;;0.50;99.90;;;;;;6277728;22;20440;-79
2023/03/12 02:16:58;;;;;;;7.85;4.65;;;0.50;99.90;;;;;;6250241;22;20045;-79
2023/03/12 02:19:43;;;;;;;11.07;5.25;;;0.60;99.90;;;;;;6277273;22;20467;-79
2023/03/12 02:22:10;;;;;;;8.93;5.05;;;0.50;99.90;;;;;;6250288;22;20467;-79
2023/03/12 02:24:55;;;;;;;7.35;4.78;;;0.50;99.90;;;;;;6249981;22;20031;-79
2023/03/12 02:27:22;;;;;;;8.65;4.80;;;0.50;99.90;;;;;;6250257;22;20066;-79
2023/03/12 02:29:48;;;;;;;12.43;4.78;;;0.60;99.90;;;;;;6277128;22;20031;-79
2023/03/12 02:32:23;;;;;;;11.10;5.03;;;0.70;99.90;;;;;;6277230;22;20019;-79
2023/03/12 02:34:49;;;;;;;8.32;4.88;;;0.60;99.90;;;;;;6276988;22;20011;-79
2023/03/12 02:37:16;;;;;;;8.52;4.50;;;0.70;99.90;;;;;;6277127;22;20028;-79
2023/03/12 02:39:48;;;;;;;7.95;4.90;;;0.70;99.90;;;;;;6277509;22;20016;-79
2023/03/12 02:42:14;;;;;;;8.20;4.10;;;0.70;99.90;;;;;;6250143;22;20016;-79
2023/03/12 02:44:42;;;;;;;9.65;4.30;;;0.80;99.90;;;;;;6277068;22;20475;-79
2023/03/12 02:47:08;;;;;;;8.93;4.45;;;0.70;99.90;;;;;;6250038;22;20091;-79
2023/03/12 02:49:34;;;;;;;11.95;4.50;;;0.80;99.90;;;;;;6249910;22;20074;-79
2023/03/12 02:52:00;;;;;;;10.88;5.15;;;0.80;99.90;;;;;;6249970;22;20348;-79
2023/03/12 02:54:27;;;;;;;8.77;4.50;;;0.80;99.90;;;;;;6250074;22;20022;-79
2023/03/12 02:56:53;;;;;;;6.40;4.22;;;0.80;99.90;;;;;;6249824;22;20019;-79
2023/03/12 02:59:20;;;;;;;8.45;4.32;;;0.80;99.90;;;;;;6276951;22;20063;-80
2023/03/12 03:01:46;;;;;;;8.73;4.85;;;0.80;99.90;;;;;;6250253;22;20020;-79
2023/03/12 03:04:12;;;;;;;8.85;4.47;;;0.80;99.90;;;;;;6249927;22;20015;-79
2023/03/12 03:06:41;;;;;;;7.95;4.55;;;0.80;99.90;;;;;;6277037;22;20020;-79
2023/03/12 03:09:07;;;;;;;5.88;4.07;;;0.90;99.90;;;;;;6249821;22;20462;-79
2023/03/12 03:11:33;;;;;;;10.52;4.03;;;0.90;99.90;;;;;;6276746;22;20020;-80
2023/03/12 03:13:58;;;;;;;7.03;4.35;;;0.90;99.90;;;;;;6277018;22;20020;-80
2023/03/12 03:16:24;;;;;;;10.23;4.53;;;0.80;99.90;;;;;;6249476;22;20016;-79
2023/03/12 03:18:50;;;;;;;8.68;4.53;;;1.00;99.90;;;;;;6249736;22;20019;-79
2023/03/12 03:21:16;;;;;;;9.27;4.43;;;0.80;99.90;;;;;;6249595;22;20024;-79
2023/03/12 03:23:47;;;;;;;6.13;4.18;;;0.90;99.90;;;;;;6249794;22;20019;-80
2023/03/12 03:26:13;;;;;;;9.65;4.25;;;0.90;99.90;;;;;;6249764;22;20020;-80
2023/03/12 03:28:39;;;;;;;7.45;4.43;;;1.00;99.90;;;;;;6249759;22;20012;-79
2023/03/12 03:31:05;;;;;;;7.47;4.85;;;1.00;99.90;;;;;;6249788;22;20364;-80
2023/03/12 03:33:33;;;;;;;8.40;4.20;;;1.00;99.90;;;;;;6249548;22;20340;-80
2023/03/12 03:36:00;;;;;;;6.93;4.03;;;1.10;99.90;;;;;;6249648;22;20015;-80
2023/03/12 03:38:27;;;;;;;6.25;3.83;;;1.10;99.90;;;;;;6249827;22;20030;-80
2023/03/12 03:40:53;;;;;;;6.82;3.75;;;1.00;99.90;;;;;;6249793;22;20016;-79
2023/03/12 03:43:19;;;;;;;7.90;3.30;;;1.10;99.90;;;;;;6249782;22;20020;-79
2023/03/12 03:45:45;;;;;;;6.30;3.83;;;1.00;99.90;;;;;;6249695;22;20016;-80
2023/03/12 03:48:11;;;;;;;5.88;3.60;;;1.10;99.90;;;;;;6249648;22;20443;-80
2023/03/12 03:50:38;;;;;;;11.43;3.60;;;1.00;99.90;;;;;;6277077;22;20035;-80
2023/03/12 03:53:05;;;;;;;10.35;3.78;;;1.10;99.90;;;;;;6249665;22;20022;-80
2023/03/12 03:55:31;;;;;;;6.65;3.90;;;1.10;99.90;;;;;;6249560;22;20382;-79
2023/03/12 03:57:56;;;;;;;7.65;3.55;;;1.10;99.90;;;;;;6276628;22;20019;-79
2023/03/12 04:00:22;;;;;;;8.15;3.85;;;1.10;99.90;;;;;;6249651;22;20062;-80
2023/03/12 04:02:48;;;;;;;6.50;3.85;;;1.10;99.90;;;;;;6249643;22;20016;-80
2023/03/12 04:05:14;;;;;;;6.50;3.88;;;1.00;99.90;;;;;;6276705;22;20344;-80
2023/03/12 04:07:40;;;;;;;7.85;3.42;;;1.10;99.90;;;;;;6276920;22;20023;-80
2023/03/12 04:10:06;;;;;;;8.00;4.10;;;1.10;99.90;;;;;;6250026;22;20028;-80
2023/03/12 04:12:32;;;;;;;7.55;4.25;;;1.10;99.90;;;;;;6251539;22;20016;-80
2023/03/12 04:14:58;;;;;;;9.20;3.90;;;1.20;99.90;;;;;;6251448;22;20020;-80
2023/03/12 04:17:24;;;;;;;7.28;3.80;;;1.10;99.90;;;;;;6251466;22;20348;-80
2023/03/12 04:19:49;;;;;;;8.63;3.80;;;1.20;99.90;;;;;;6251491;22;20339;-79
2023/03/12 04:22:15;;;;;;;8.90;3.65;;;1.10;99.90;;;;;;6251811;22;20059;-80
2023/03/12 04:24:40;;;;;;;7.10;4.05;;;1.10;99.90;;;;;;6278539;22;20343;-80
2023/03/12 04:27:06;;;;;;;7.95;3.72;;;1.10;99.90;;;;;;6251400;22;20062;-80
2023/03/12 04:29:32;;;;;;;9.25;4.10;;;1.20;99.90;;;;;;6251495;22;20020;-80
2023/03/12 04:31:57;;;;;;;9.55;4.35;;;1.20;99.90;;;;;;6251367;22;20344;-80
2023/03/12 04:34:25;;;;;;;8.90;3.90;;;1.10;99.90;;;;;;6251244;22;20382;-80
2023/03/12 04:36:52;;;;;;;6.38;4.15;;;1.10;99.90;;;;;;6251134;22;20023;-80
2023/03/12 04:39:19;;;;;;;9.25;4.10;;;1.10;99.90;;;;;;6278654;22;20027;-80
2023/03/12 04:41:44;;;;;;;6.10;3.95;;;1.20;99.90;;;;;;6251219;22;20027;-79
2023/03/12 04:44:10;;;;;;;7.10;3.90;;;1.20;99.90;;;;;;6251248;22;20012;-80
2023/03/12 04:46:36;;;;;;;6.57;3.53;;;1.20;99.90;;;;;;6251501;22;20062;-79
2023/03/12 04:49:03;;;;;;;8.13;4.13;;;1.20;99.90;;;;;;6251110;22;20023;-80
2023/03/12 04:51:30;;;;;;;8.52;4.18;;;1.20;99.90;;;;;;6278544;22;20087;-80
2023/03/12 04:53:56;;;;;;;10.93;4.57;;;1.20;99.90;;;;;;6278547;22;20027;-80
2023/03/12 04:56:22;;;;;;;8.23;3.95;;;1.20;99.90;;;;;;6250804;22;20026;-79
2023/03/12 04:58:49;;;;;;;7.70;4.03;;;1.10;99.90;;;;;;6251100;22;20091;-79
2023/03/12 05:01:26;;;;;;;8.20;4.55;;;1.20;99.90;;;;;;6250944;22;20054;-79
2023/03/12 05:03:53;;;;;;;6.32;4.20;;;1.10;99.90;;;;;;6251023;22;20098;-80
2023/03/12 05:06:19;;;;;;;8.38;4.20;;;1.10;99.90;;;;;;6250968;22;20019;-79
2023/03/12 05:08:45;;;;;;;8.80;4.55;;;1.10;99.90;;;;;;6250527;22;20039;-79
2023/03/12 05:11:11;;;;;;;9.50;4.20;;;1.10;99.90;;;;;;6278366;22;20012;-79
2023/03/12 05:13:37;;;;;;;7.47;3.78;;;1.10;99.90;;;;;;6251029;22;20462;-80
2023/03/12 05:16:03;;;;;;;8.40;4.72;;;1.10;99.90;;;;;;6277910;22;20089;-80
2023/03/12 05:18:29;;;;;;;6.80;3.90;;;1.00;99.90;;;;;;6251534;22;20020;-80
2023/03/12 05:21:03;;;;;;;11.40;4.55;;;1.10;99.90;;;;;;6250859;22;20011;-80
2023/03/12 05:23:30;;;;;;;8.35;5.03;;;1.10;99.90;;;;;;6250334;22;20047;-80
2023/03/12 05:25:56;;;;;;;6.82;3.92;;;1.10;99.90;;;;;;6250793;22;20024;-79
2023/03/12 05:28:26;;;;;;;7.38;4.05;;;1.10;99.90;;;;;;6250702;22;20020;-80
2023/03/12 05:30:54;;;;;;;8.02;4.57;;;1.10;99.90;;;;;;6250573;22;20016;-79
2023/03/12 05:33:21;;;;;;;10.93;4.60;;;1.10;99.90;;;;;;6250445;22;20029;-80
2023/03/12 05:35:46;;;;;;;6.85;4.15;;;1.20;99.90;;;;;;6278049;22;20015;-80
2023/03/12 05:38:12;;;;;;;9.75;4.95;;;1.20;99.90;;;;;;6250670;22;20317;-80
2023/03/12 05:40:38;;;;;;;8.35;4.88;;;1.20;99.90;;;;;;6250643;22;20020;-79
2023/03/12 05:43:03;;;;;;;7.72;4.43;;;1.20;99.90;;;;;;6250424;22;20463;-80
2023/03/12 05:45:31;;;;;;;7.50;4.63;;;1.20;99.90;;;;;;6277889;22;20012;-80
2023/03/12 05:47:57;;;;;;;7.68;4.25;;;1.20;99.90;;;;;;6277732;22;20016;-80
2023/03/12 05:50:23;;;;;;;8.05;4.70;;;1.20;99.90;;;;;;6250551;22;20329;-80
2023/03/12 05:52:51;;;;;;;8.57;4.47;;;1.20;99.90;;;;;;6250387;22;20106;-80
2023/03/12 05:55:17;;;;;;;8.85;4.68;;;1.20;99.90;;;;;;6250468;22;20509;-80
2023/03/12 05:57:43;;;;;;;7.63;4.70;;;1.20;99.90;;;;;;6277555;22;20058;-80
2023/03/12 06:00:12;;;;;;;8.68;5.07;;;1.20;99.90;;;;;;6250485;22;20011;-80
2023/03/12 06:02:37;;;;;;;8.05;4.13;;;1.20;99.90;;;;;;6277571;22;20032;-80
2023/03/12 06:05:03;;;;;;;8.32;4.32;;;1.30;99.90;;;;;;6277757;22;20012;-80
2023/03/12 06:07:29;;;;;;;8.30;4.85;;;1.30;99.90;;;;;;6250245;22;20336;-80
2023/03/12 06:09:54;;;;;;;9.98;4.68;;;1.30;99.90;;;;;;6250108;22;20015;-80
2023/03/12 06:12:20;;;;;;;7.75;5.18;;;1.30;99.90;;;;;;6249268;22;20020;-80
2023/03/12 06:14:46;;;;;;;7.55;4.75;;;1.30;99.90;;;;;;6248675;22;20026;-80
2023/03/12 06:17:11;;;;;;;9.82;4.93;;;1.30;99.90;;;;;;6249043;22;20019;-80
2023/03/12 06:19:37;;;;;;;8.55;5.20;;;1.30;99.90;;;;;;6249918;22;20343;-80
2023/03/12 06:22:03;;;;;;;10.38;5.68;;;1.40;99.90;;;;;;6250177;22;20015;-80
2023/03/12 06:24:28;;;;;;;12.48;5.40;;;1.30;99.90;;;;;;6250129;22;20016;-80
2023/03/12 06:26:54;;;;;;;9.63;5.20;;;1.30;99.90;;;;;;6250107;22;20011;-80
2023/03/12 06:29:20;;;;;;;7.90;5.30;;;1.40;99.90;;;;;;6249927;22;20015;-80
2023/03/12 06:31:47;;;;;;;12.65;5.80;;;1.30;99.90;;;;;;6250165;22;20023;-80
2023/03/12 06:34:13;;;;;;;8.48;5.00;;;1.40;99.90;;;;;;6276387;22;20019;-80
2023/03/12 06:36:38;;;;;;;7.78;4.63;;;1.40;99.90;;;;;;6249678;22;20020;-80
2023/03/12 06:39:05;;;;;;;12.23;5.35;;;1.40;99.90;;;;;;6250033;22;20158;-79
2023/03/12 06:41:31;;;;;;;8.48;4.97;;;1.40;99.90;;;;;;6249892;22;20011;-80
2023/03/12 06:43:57;;;;;;;7.25;5.18;;;1.40;99.90;;;;;;6249811;22;20019;-80
2023/03/12 06:46:24;;;;;;;10.40;5.10;;;1.40;99.90;;;;;;6249880;22;20054;-80
2023/03/12 06:48:50;;;;;;;9.35;5.47;;;1.40;99.90;;;;;;6249755;22;20011;-80
2023/03/12 06:51:16;;;;;;;8.25;4.93;;;1.40;99.90;;;;;;6277166;22;20023;-80
2023/03/12 06:53:43;;;;;;;9.10;5.85;;;1.40;99.90;;;;;;6249783;22;20011;-80
2023/03/12 06:56:09;;;;;;;9.50;6.05;;;1.40;99.90;;;;;;6249365;22;20019;-80
2023/03/12 06:58:35;;;;;;;9.88;5.97;;;1.50;99.90;;;;;;6249820;22;20073;-80
2023/03/12 07:01:01;;;;;;;9.63;5.97;;;1.50;99.90;;;;;;6249761;22;20019;-80
2023/03/12 07:03:26;;;;;;;9.25;6.22;;;1.50;99.90;;;;;;6249675;22;20051;-81
2023/03/12 07:05:56;;;;;;;8.95;5.45;;;1.60;99.90;;;;;;6277164;22;20440;-81
2023/03/12 07:08:22;;;;;;;8.75;5.75;;;1.50;99.90;;;;;;6249790;22;20020;-80
2023/03/12 07:10:48;;;;;;;12.10;5.68;;;1.60;99.90;;;;;;6249715;22;20016;-80
2023/03/12 07:13:14;;;;;;;10.43;6.13;;;1.50;99.90;;;;;;6249744;22;20023;-81
2023/03/12 07:15:39;;;;;;;12.90;5.93;;;1.50;99.90;;;;;;6276770;22;20042;-80
2023/03/12 07:18:10;;;;;;;11.20;7.43;;;1.50;99.90;;;;;;6249536;22;20069;-80
2023/03/12 07:20:38;;;;;;;8.60;6.20;;;1.50;99.90;;;;;;6249739;22;20020;-81
2023/03/12 07:23:04;;;;;;;10.52;6.80;;;1.40;99.90;;;;;;6249467;22;20019;-81
2023/03/12 07:25:29;;;;;;;11.23;7.50;;;1.40;99.90;;;;;;6249304;22;20027;-81
2023/03/12 07:27:55;;;;;;;14.32;6.82;;;1.30;99.90;;;;;;6277046;22;20016;-81
2023/03/12 07:30:21;;;;;;;11.60;7.22;;;1.20;99.90;;;;;;6249678;22;20126;-81
2023/03/12 07:32:49;;;;;;;12.18;7.80;;;1.20;99.90;;;;;;6249389;22;20023;-81
2023/03/12 07:35:18;;;;;;;12.75;7.50;;;1.20;99.90;;;;;;6249682;22;20341;-80
2023/03/12 07:37:44;;;;;;;13.95;8.60;;;1.10;99.90;;;;;;6276588;22;20098;-81
2023/03/12 07:40:10;;;;;;;13.18;8.80;;;1.10;99.90;;;;;;6249544;22;20051;-81
2023/03/12 07:42:36;;;;;;;11.40;7.05;;;1.10;99.90;;;;;;6276672;22;20569;-81
2023/03/12 07:45:03;;;;;;;15.90;8.75;;;1.10;99.90;;;;;;6250021;22;20043;-82
2023/03/12 07:47:28;;;;;;;11.00;7.03;;;1.10;99.90;;;;;;6278810;22;20087;-83
2023/03/12 07:49:54;;;;;;;10.60;7.90;;;1.00;99.90;;;;;;6278699;22;20055;-83
2023/03/12 07:52:20;;;;;;;13.55;9.57;;;1.00;99.90;;;;;;6279058;22;20012;-83
2023/03/12 07:54:45;;;;;;;13.50;8.85;;;1.00;99.90;;;;;;6251706;22;20103;-83
2023/03/12 07:57:12;;;;;;;13.50;10.13;;;1.00;99.90;;;;;;6251338;22;20019;-83
2023/03/12 07:59:38;;;;;;;16.13;9.63;;;1.00;99.90;;;;;;6251626;22;20066;-85
2023/03/12 08:02:03;;;;;;;14.48;9.30;;;1.00;99.90;;;;;;6250598;22;20019;-87
2023/03/12 08:04:29;;;;;;;14.55;9.45;;;1.00;99.90;;;;;;6278319;22;20023;-83
2023/03/12 08:06:55;;;;;;;15.30;10.00;;;1.00;99.90;;;;;;6251288;22;20012;-83
2023/03/12 08:09:21;;;;;;;16.27;10.10;;;1.00;99.90;;;;;;6278687;22;20090;-83
2023/03/12 08:11:46;;;;;;;14.25;9.35;;;1.00;99.90;;;;;;6278429;22;20019;-82
2023/03/12 08:14:13;;;;;;;13.15;8.40;;;1.00;99.90;;;;;;6249209;22;20016;-85
2023/03/12 08:16:39;;;;;;;14.00;10.45;;;1.00;99.90;;;;;;6251143;22;20023;-84
2023/03/12 08:19:05;;;;;;;13.18;9.68;;;1.10;99.90;;;;;;6251012;22;20015;-84
2023/03/12 08:21:30;;;;;;;16.70;11.43;;;1.10;99.90;;;;;;6251231;22;20004;-85
2023/03/12 08:23:56;;;;;;;17.65;11.10;;;1.20;99.90;;;;;;6251129;22;20098;-85
2023/03/12 08:26:22;;;;;;;19.77;12.30;;;1.20;99.90;;;;;;6251012;22;20016;-84
2023/03/12 08:28:47;;;;;;;17.52;11.82;;;1.10;99.90;;;;;;6251218;22;20428;-84
2023/03/12 08:31:13;;;;;;;16.20;11.77;;;1.20;99.90;;;;;;6251260;22;20511;-84
2023/03/12 08:33:42;;;;;;;16.08;10.32;;;1.10;99.90;;;;;;6251108;22;20008;-85
2023/03/12 08:36:09;;;;;;;17.08;11.18;;;1.10;99.90;;;;;;6278839;22;20081;-86
2023/03/12 08:38:34;;;;;;;14.27;11.05;;;1.20;99.90;;;;;;6278360;22;20051;-88
2023/03/12 08:41:01;;;;;;;17.05;11.70;;;1.30;99.90;;;;;;6250988;22;20023;-85
2023/03/12 08:43:27;;;;;;;17.58;12.55;;;1.30;99.90;;;;;;6250873;22;20313;-87
2023/03/12 08:45:58;;;;;;;15.35;10.88;;;1.30;99.90;;;;;;6251023;22;20016;-86
2023/03/12 08:48:24;;;;;;;20.02;12.82;;;1.40;99.90;;;;;;6250933;22;20020;-83
2023/03/12 08:50:50;;;;;;;19.38;11.80;;;1.30;99.90;;;;;;6250949;22;20451;-86
2023/03/12 08:53:16;;;;;;;17.33;13.20;;;1.40;99.90;;;;;;6250833;22;20015;-85
2023/03/12 08:55:42;;;;;;;17.00;12.05;;;1.40;99.90;;;;;;6250804;22;20015;-84
2023/03/12 08:58:08;;;;;;;20.98;14.43;;;1.50;99.90;;;;;;6250126;22;20027;-84
2023/03/12 09:00:34;;;;;;;19.35;13.98;;;1.40;99.90;;;;;;6250709;22;20203;-83
2023/03/12 09:02:59;;;;;;;19.63;14.68;;;1.40;99.90;;;;;;6250799;22;20015;-85
2023/03/12 09:05:28;;;;;;;17.48;11.82;;;1.40;99.90;;;;;;6250653;22;20023;-85
2023/03/12 09:07:55;;;;;;;24.33;15.45;;;1.40;99.90;;;;;;6250986;22;20369;-85
2023/03/12 09:10:21;;;;;;;17.38;13.15;;;1.50;99.90;;;;;;6225413;22;20012;-85
2023/03/12 09:12:46;;;;;;;21.25;15.63;;;1.40;99.90;;;;;;6250701;22;20061;-85
2023/03/12 09:15:16;;;;;;;21.13;14.63;;;1.50;99.90;;;;;;6250562;22;20015;-84
2023/03/12 09:17:43;;;;;;;17.42;13.32;;;1.40;99.90;;;;;;6277932;22;20024;-84
2023/03/12 09:20:12;;;;;;;21.60;13.05;;;1.50;99.90;;;;;;6250676;22;20011;-86
2023/03/12 09:22:39;;;;;;;20.23;15.15;;;1.60;99.90;;;;;;6250907;22;20022;-85
2023/03/12 09:25:07;;;;;;;18.85;13.30;;;1.40;99.90;;;;;;6250697;22;20019;-85
2023/03/12 09:27:41;;;;;;;18.33;14.40;;;1.50;99.90;;;;;;6250681;22;20481;-85
2023/03/12 09:30:12;;;;;;;16.40;12.90;;;1.50;99.90;;;;;;6250652;22;20012;-85
2023/03/12 09:32:37;;;;;;;18.15;13.73;;;1.50;99.90;;;;;;6250643;22;20022;-86
2023/03/12 09:35:05;;;;;;;18.77;12.43;;;1.60;99.90;;;;;;6250570;22;20090;-86
2023/03/12 09:37:31;;;;;;;16.23;11.95;;;1.50;99.90;;;;;;6277902;22;20019;-86
2023/03/12 09:39:57;;;;;;;18.20;12.88;;;1.50;99.90;;;;;;6277812;22;20012;-87
2023/03/12 09:42:59;;;;;;;23.65;14.52;;;1.50;99.90;;;;;;6250389;22;20016;-86
2023/03/12 09:45:33;;;;;;;16.38;12.40;;;1.50;99.90;;;;;;6250478;22;20012;-87
2023/03/12 09:48:03;;;;;;;18.58;11.68;;;1.50;99.90;;;;;;6250341;22;20019;-85
2023/03/12 09:50:42;;;;;;;17.80;12.70;;;1.60;99.90;;;;;;6250365;22;20020;-84
2023/03/12 09:53:29;;;;;;;16.85;12.95;;;1.60;99.90;;;;;;6250402;22;20069;-84
2023/03/12 09:55:57;;;;;;;18.00;12.70;;;1.60;99.90;;;;;;6250280;22;20098;-84
2023/03/12 09:58:33;;;;;;;18.08;12.98;;;1.60;99.90;;;;;;6250313;22;20026;-85
2023/03/12 10:01:31;;;;;;;16.92;12.13;;;1.70;99.90;;;;;;6250207;22;20090;-86
2023/03/12 10:04:14;;;;;;;17.40;12.55;;;1.80;99.90;;;;;;6211803;22;20117;-84
2023/03/12 10:07:10;;;;;;;18.75;13.18;;;1.80;99.90;;;;;;6250155;22;20022;-85
2023/03/12 10:10:01;;;;;;;21.10;12.90;;;1.90;99.90;;;;;;6277493;22;20432;-84
2023/03/12 10:13:04;;;;;;;17.95;12.63;;;1.80;99.90;;;;;;6245474;22;20448;-84
2023/03/12 10:15:54;;;;;;;20.63;15.02;;;1.80;99.90;;;;;;6250045;22;20038;-84
2023/03/12 10:18:48;;;;;;;18.40;13.88;;;2.10;99.90;;;;;;6250028;22;20440;-86
2023/03/12 10:21:13;;;;;;;;;;;2.00;99.90;;;;;;6250575;22;20034;-84
2023/03/12 10:24:05;;;;;;;16.48;11.77;;;2.10;99.90;;;;;;6277081;22;20426;-84
2023/03/12 10:26:43;;;;;;;16.15;11.35;;;2.10;99.90;;;;;;6250112;22;20070;-83
2023/03/12 10:29:35;;;;;;;15.52;11.48;;;2.00;99.90;;;;;;6249971;22;20022;-83
2023/03/12 10:32:15;;;;;;;22.15;13.07;;;2.10;99.90;;;;;;6249942;22;20023;-83
2023/03/12 10:34:51;;;;;;;14.43;11.52;;;2.10;99.90;;;;;;6250021;22;20012;-84
2023/03/12 10:37:24;;;;;;;17.58;13.07;;;2.20;99.90;;;;;;6249902;22;20069;-84
2023/03/12 10:39:54;;;;;;;19.73;12.90;;;2.20;99.90;;;;;;6249956;22;20015;-84
2023/03/12 10:42:23;;;;;;;20.02;13.65;;;2.20;99.90;;;;;;6249835;22;20376;-84
2023/03/12 10:45:16;;;;;;;23.20;13.77;;;2.20;99.90;;;;;;6276963;22;20020;-86
2023/03/12 10:47:43;;;;;;;18.77;11.45;;;2.20;99.90;;;;;;6197792;22;20012;-86
2023/03/12 10:50:14;;;;;;;19.85;12.15;;;2.40;99.90;;;;;;6249803;22;20012;-86
2023/03/12 10:52:41;;;;;;;17.83;11.73;;;2.40;99.90;;;;;;6249777;22;20047;-86
2023/03/12 10:55:18;;;;;;;19.50;12.75;;;2.30;99.90;;;;;;6249759;22;20061;-84
2023/03/12 10:57:43;;;;;;;16.83;12.02;;;2.40;99.90;;;;;;6276869;22;20439;-84
2023/03/12 11:00:19;;;;;;;18.67;11.73;;;2.50;99.90;;;;;;6249636;22;20106;-83
2023/03/12 11:02:46;;;;;;;17.15;11.10;;;2.50;99.90;;;;;;6249535;22;20016;-84
2023/03/12 11:05:48;;;;;;;18.13;13.52;;;2.50;99.90;;;;;;6249617;22;20016;-86
2023/03/12 11:08:32;;;;;;;20.85;11.38;;;2.60;99.90;;;;;;6249666;22;20023;-85
2023/03/12 11:10:59;;;;;;;18.10;12.15;;;2.60;99.90;;;;;;6276751;22;20507;-85
2023/03/12 11:13:28;;;;;;;17.90;11.70;;;2.70;99.90;;;;;;6276757;22;20015;-84
2023/03/12 11:15:58;;;;;;;17.38;12.32;;;2.60;99.90;;;;;;6276755;22;20028;-83
2023/03/12 11:18:30;;;;;;;18.02;12.15;;;2.80;99.90;;;;;;6249469;22;20015;-83
2023/03/12 11:21:08;;;;;;;16.63;11.77;;;2.90;99.90;;;;;;6249341;22;20016;-84
2023/03/12 11:23:47;;;;;;;20.88;13.20;;;2.90;99.90;;;;;;6249689;22;20073;-84
2023/03/12 11:26:18;;;;;;;16.17;10.55;;;3.00;99.90;;;;;;6249575;22;20018;-84
2023/03/12 11:28:48;;;;;;;21.30;12.75;;;3.20;99.90;;;;;;6276941;22;20023;-84
2023/03/12 11:31:23;;;;;;;23.08;12.82;;;3.10;99.90;;;;;;6277068;22;20444;-82
2023/03/12 11:33:52;;;;;;;21.73;12.90;;;3.20;99.90;;;;;;6249318;22;20022;-84
2023/03/12 11:36:37;;;;;;;19.50;12.43;;;3.30;99.90;;;;;;6249679;22;20046;-83
2023/03/12 11:39:22;;;;;;;21.95;12.85;;;3.40;99.90;;;;;;6276887;22;20019;-83
2023/03/12 11:42:00;;;;;;;17.90;11.88;;;3.50;99.90;;;;;;6249611;22;20087;-82
2023/03/12 11:44:34;;;;;;;21.40;13.15;;;3.60;99.90;;;;;;6249763;22;20023;-82
2023/03/12 11:47:09;;;;;;;23.45;12.88;;;3.70;99.90;;;;;;6249655;22;20347;-82
2023/03/12 11:49:47;;;;;;;20.60;12.50;;;3.70;99.90;;;;;;6249898;22;20015;-83
2023/03/12 11:52:59;;;;;;;22.10;14.02;;;3.90;99.90;;;;;;6249645;22;20054;-83
2023/03/12 11:55:37;;;;;;;23.13;13.48;;;4.00;99.90;;;;;;6249748;22;20012;-83
2023/03/12 11:58:15;;;;;;;21.92;12.73;;;3.90;99.90;;;;;;6249501;22;20019;-83
2023/03/12 12:00:56;;;;;;;19.77;12.75;;;4.00;99.90;;;;;;6249757;22;20012;-82
2023/03/12 12:03:33;;;;;;;22.90;13.27;;;4.20;99.90;;;;;;6276986;22;20012;-82
2023/03/12 12:06:04;;;;;;;24.90;12.40;;;4.30;99.90;;;;;;6249708;22;20027;-82
2023/03/12 12:08:33;;;;;;;26.08;14.60;;;4.30;99.90;;;;;;6249632;22;20038;-82
2023/03/12 12:11:13;;;;;;;23.20;13.98;;;4.50;99.90;;;;;;6249549;22;20022;-82
2023/03/12 12:14:10;;;;;;;27.58;14.32;;;4.70;99.90;;;;;;6249343;22;20016;-82
2023/03/12 12:16:58;;;;;;;22.13;12.18;;;4.70;99.90;;;;;;6249459;22;20019;-82
2023/03/12 12:19:29;;;;;;;26.58;13.10;;;4.80;99.90;;;;;;6276737;22;20015;-82
2023/03/12 12:22:04;;;;;;;25.67;13.52;;;5.00;99.90;;;;;;6276794;22;20478;-82
2023/03/12 12:24:53;;;;;;;25.15;13.40;;;4.90;99.90;;;;;;6276578;22;20427;-82
2023/03/12 12:27:27;;;;;;;25.30;13.90;;;5.10;99.90;;;;;;6249543;22;20455;-83
2023/03/12 12:30:40;;;;;;;23.45;12.43;;;5.10;99.90;;;;;;6249367;22;20018;-82
2023/03/12 12:33:18;;;;;;;26.75;13.60;;;5.00;99.90;;;;;;6240459;22;20020;-82
2023/03/12 12:35:44;;;;;;;26.00;13.10;;;5.20;99.90;;;;;;6251325;22;20019;-82
2023/03/12 12:38:43;;;;;;;24.40;13.13;;;5.20;99.90;;;;;;6251229;22;20027;-81
2023/03/12 12:41:19;;;;;;;26.70;14.35;;;5.30;99.90;;;;;;6245306;22;20024;-82
2023/03/12 12:43:49;;;;;;;25.15;14.00;;;5.40;99.90;;;;;;6278759;22;20047;-82
2023/03/12 12:46:29;;;;;;;24.65;13.38;;;5.40;99.90;;;;;;6278826;22;20454;-82
2023/03/12 12:49:01;;;;;;;32.33;13.68;;;5.50;99.90;;;;;;6278645;22;20340;-82
2023/03/12 12:51:35;;;;;;;28.73;13.53;;;5.50;99.90;;;;;;6251135;22;20015;-83
2023/03/12 12:54:17;;;;;;;26.10;13.02;;;5.50;99.90;;;;;;6250989;22;20051;-82
2023/03/12 12:57:02;;;;;;;31.73;13.18;;;5.60;99.90;;;;;;6251042;22;20015;-82
2023/03/12 12:59:50;;;;;;;29.15;13.05;;;5.70;99.90;;;;;;6278207;22;20464;-82
2023/03/12 13:02:25;;;;;;;35.38;13.95;;;5.70;99.90;;;;;;6251166;22;20042;-82